sensor_id;sensor_type;location;lat;lon;timestamp;temperature;humidity
3332;DHT22;1678;50.94845400;5.30809100;2022-12-07T00:01:20;4.80;99.90
3332;DHT22;1678;50.94845400;5.30809100;2022-12-07T00:03:50;4.70;99.90
3332;DHT22;1678;50.94845400;5.30809100;2022-12-07T00:06:19;4.70;99.90
3332;DHT22;1678;50.94845400;5.30809100;2022-12-07T00:08:48;4.80;99.90
3332;DHT22;1678;50.94845400;5.30809100;2022-12-07T00:11:19;4.80;99.90
3332;DHT22;1678;50.94845400;5.30809100;2022-12-07T00:13:51;4.80;99.90
3332;DHT22;1678;50.94845400;5.30809100;2022-12-07T00:16:21;4.80;99.90
3332;DHT22;1678;50.94845400;5.30809100;2022-12-07T00:18:50;4.80;99.90
3332;DHT22;1678;50.94845400;5.30809100;2022-12-07T00:21:19;4.70;99.90
3332;DHT22;1678;50.94845400;5.30809100;2022-12-07T00:23:49;4.60;99.90
3332;DHT22;1678;50.94845400;5.30809100;2022-12-07T00:26:20;4.60;99.90
3332;DHT22;1678;50.94845400;5.30809100;2022-12-07T00:28:49;4.60;99.90
3332;DHT22;1678;50.94845400;5.30809100;2022-12-07T00:31:19;4.60;99.90
3332;DHT22;1678;50.94845400;5.30809100;2022-12-07T00:33:48;4.60;99.90
3332;DHT22;1678;50.94845400;5.30809100;2022-12-07T00:36:19;4.60;99.90
3332;DHT22;1678;50.94845400;5.30809100;2022-12-07T00:38:53;4.60;99.90
3332;DHT22;1678;50.94845400;5.30809100;2022-12-07T00:41:24;4.60;99.90
3332;DHT22;1678;50.94845400;5.30809100;2022-12-07T00:43:53;4.60;99.90
3332;DHT22;1678;50.94845400;5.30809100;2022-12-07T00:46:22;4.70;99.90
3332;DHT22;1678;50.94845400;5.30809100;2022-12-07T00:48:51;4.70;99.90
3332;DHT22;1678;50.94845400;5.30809100;2022-12-07T00:51:20;4.70;99.90
3332;DHT22;1678;50.94845400;5.30809100;2022-12-07T00:53:48;4.60;99.90
3332;DHT22;1678;50.94845400;5.30809100;2022-12-07T00:56:20;4.70;99.90
3332;DHT22;1678;50.94845400;5.30809100;2022-12-07T00:58:54;4.80;99.90
3332;DHT22;1678;50.94845400;5.30809100;2022-12-07T01:01:24;4.70;99.90
3332;DHT22;1678;50.94845400;5.30809100;2022-12-07T01:03:53;4.80;99.90
3332;DHT22;1678;50.94845400;5.30809100;2022-12-07T01:06:22;4.80;99.90
3332;DHT22;1678;50.94845400;5.30809100;2022-12-07T01:08:50;4.80;99.90
3332;DHT22;1678;50.94845400;5.30809100;2022-12-07T01:11:20;4.80;99.90
3332;DHT22;1678;50.94845400;5.30809100;2022-12-07T01:13:49;4.80;99.90
3332;DHT22;1678;50.94845400;5.30809100;2022-12-07T01:16:20;4.90;99.90
3332;DHT22;1678;50.94845400;5.30809100;2022-12-07T01:18:50;4.90;99.90
3332;DHT22;1678;50.94845400;5.30809100;2022-12-07T01:21:21;4.90;99.90
3332;DHT22;1678;50.94845400;5.30809100;2022-12-07T01:23:50;4.90;99.90
3332;DHT22;1678;50.94845400;5.30809100;2022-12-07T01:26:20;4.90;99.90
3332;DHT22;1678;50.94845400;5.30809100;2022-12-07T01:28:48;5.00;99.90
3332;DHT22;1678;50.94845400;5.30809100;2022-12-07T01:31:20;5.00;99.90
3332;DHT22;1678;50.94845400;5.30809100;2022-12-07T01:33:51;5.00;99.90
3332;DHT22;1678;50.94845400;5.30809100;2022-12-07T01:36:20;5.00;99.90
3332;DHT22;1678;50.94845400;5.30809100;2022-12-07T01:38:51;5.00;99.90
3332;DHT22;1678;50.94845400;5.30809100;2022-12-07T01:41:20;5.00;99.90
3332;DHT22;1678;50.94845400;5.30809100;2022-12-07T01:44:13;5.00;99.90
3332;DHT22;1678;50.94845400;5.30809100;2022-12-07T01:46:44;5.00;99.90
3332;DHT22;1678;50.94845400;5.30809100;2022-12-07T01:49:17;5.00;99.90
3332;DHT22;1678;50.94845400;5.30809100;2022-12-07T01:51:48;5.00;99.90
3332;DHT22;1678;50.94845400;5.30809100;2022-12-07T01:54:17;4.90;99.90
3332;DHT22;1678;50.94845400;5.30809100;2022-12-07T01:56:49;4.90;99.90
3332;DHT22;1678;50.94845400;5.30809100;2022-12-07T01:59:21;4.90;99.90
3332;DHT22;1678;50.94845400;5.30809100;2022-12-07T02:01:54;4.90;99.90
3332;DHT22;1678;50.94845400;5.30809100;2022-12-07T02:04:23;4.90;99.90
3332;DHT22;1678;50.94845400;5.30809100;2022-12-07T02:06:51;4.90;99.90
3332;DHT22;1678;50.94845400;5.30809100;2022-12-07T02:09:21;4.80;99.90
3332;DHT22;1678;50.94845400;5.30809100;2022-12-07T02:11:49;4.80;99.90
3332;DHT22;1678;50.94845400;5.30809100;2022-12-07T02:14:18;4.80;99.90
3332;DHT22;1678;50.94845400;5.30809100;2022-12-07T02:16:57;4.80;99.90
3332;DHT22;1678;50.94845400;5.30809100;2022-12-07T02:19:56;4.90;99.90
3332;DHT22;1678;50.94845400;5.30809100;2022-12-07T02:22:48;4.80;99.90
3332;DHT22;1678;50.94845400;5.30809100;2022-12-07T02:25:29;4.90;99.90
3332;DHT22;1678;50.94845400;5.30809100;2022-12-07T02:28:04;4.90;99.90
3332;DHT22;1678;50.94845400;5.30809100;2022-12-07T02:30:37;4.90;99.90
3332;DHT22;1678;50.94845400;5.30809100;2022-12-07T02:33:14;4.90;99.90
3332;DHT22;1678;50.94845400;5.30809100;2022-12-07T02:35:48;4.90;99.90
3332;DHT22;1678;50.94845400;5.30809100;2022-12-07T02:38:20;4.90;99.90
3332;DHT22;1678;50.94845400;5.30809100;2022-12-07T02:40:55;4.90;99.90
3332;DHT22;1678;50.94845400;5.30809100;2022-12-07T02:43:27;4.90;99.90
3332;DHT22;1678;50.94845400;5.30809100;2022-12-07T02:46:01;4.90;99.90
3332;DHT22;1678;50.94845400;5.30809100;2022-12-07T02:48:32;4.90;99.90
3332;DHT22;1678;50.94845400;5.30809100;2022-12-07T02:51:01;4.90;99.90
3332;DHT22;1678;50.94845400;5.30809100;2022-12-07T02:53:33;4.90;99.90
3332;DHT22;1678;50.94845400;5.30809100;2022-12-07T02:56:05;4.90;99.90
3332;DHT22;1678;50.94845400;5.30809100;2022-12-07T02:58:43;4.90;99.90
3332;DHT22;1678;50.94845400;5.30809100;2022-12-07T03:01:26;5.00;99.90
3332;DHT22;1678;50.94845400;5.30809100;2022-12-07T03:04:02;5.00;99.90
3332;DHT22;1678;50.94845400;5.30809100;2022-12-07T03:06:38;5.00;99.90
3332;DHT22;1678;50.94845400;5.30809100;2022-12-07T03:09:15;5.00;99.90
3332;DHT22;1678;50.94845400;5.30809100;2022-12-07T03:11:49;5.00;99.90
3332;DHT22;1678;50.94845400;5.30809100;2022-12-07T03:14:21;5.00;99.90
3332;DHT22;1678;50.94845400;5.30809100;2022-12-07T03:16:55;5.00;99.90
3332;DHT22;1678;50.94845400;5.30809100;2022-12-07T03:19:26;4.90;99.90
3332;DHT22;1678;50.94845400;5.30809100;2022-12-07T03:21:57;4.90;99.90
3332;DHT22;1678;50.94845400;5.30809100;2022-12-07T03:24:30;4.90;99.90
3332;DHT22;1678;50.94845400;5.30809100;2022-12-07T03:27:02;4.90;99.90
3332;DHT22;1678;50.94845400;5.30809100;2022-12-07T03:29:36;4.90;99.90
3332;DHT22;1678;50.94845400;5.30809100;2022-12-07T03:32:10;4.90;99.90
3332;DHT22;1678;50.94845400;5.30809100;2022-12-07T03:34:44;4.90;99.90
3332;DHT22;1678;50.94845400;5.30809100;2022-12-07T03:37:18;4.90;99.90
3332;DHT22;1678;50.94845400;5.30809100;2022-12-07T03:39:57;5.00;99.90
3332;DHT22;1678;50.94845400;5.30809100;2022-12-07T03:42:29;5.00;99.90
3332;DHT22;1678;50.94845400;5.30809100;2022-12-07T03:44:57;5.00;99.90
3332;DHT22;1678;50.94845400;5.30809100;2022-12-07T03:47:31;5.00;99.90
3332;DHT22;1678;50.94845400;5.30809100;2022-12-07T03:50:04;5.00;99.90
3332;DHT22;1678;50.94845400;5.30809100;2022-12-07T03:52:39;5.10;99.90
3332;DHT22;1678;50.94845400;5.30809100;2022-12-07T03:55:13;5.10;99.90
3332;DHT22;1678;50.94845400;5.30809100;2022-12-07T03:57:43;5.00;99.90
3332;DHT22;1678;50.94845400;5.30809100;2022-12-07T04:00:13;4.90;99.90
3332;DHT22;1678;50.94845400;5.30809100;2022-12-07T04:02:42;4.90;99.90
3332;DHT22;1678;50.94845400;5.30809100;2022-12-07T04:05:11;4.80;99.90
3332;DHT22;1678;50.94845400;5.30809100;2022-12-07T04:07:40;4.80;99.90
3332;DHT22;1678;50.94845400;5.30809100;2022-12-07T04:10:09;4.70;99.90
3332;DHT22;1678;50.94845400;5.30809100;2022-12-07T04:12:37;4.60;99.90
3332;DHT22;1678;50.94845400;5.30809100;2022-12-07T04:15:07;4.50;99.90
3332;DHT22;1678;50.94845400;5.30809100;2022-12-07T04:17:35;4.50;99.90
3332;DHT22;1678;50.94845400;5.30809100;2022-12-07T04:20:06;4.40;99.90
3332;DHT22;1678;50.94845400;5.30809100;2022-12-07T04:22:34;4.40;99.90
3332;DHT22;1678;50.94845400;5.30809100;2022-12-07T04:25:03;4.40;99.90
3332;DHT22;1678;50.94845400;5.30809100;2022-12-07T04:27:32;4.40;99.90
3332;DHT22;1678;50.94845400;5.30809100;2022-12-07T04:30:01;4.30;99.90
3332;DHT22;1678;50.94845400;5.30809100;2022-12-07T04:32:29;4.20;99.90
3332;DHT22;1678;50.94845400;5.30809100;2022-12-07T04:34:57;4.20;99.90
3332;DHT22;1678;50.94845400;5.30809100;2022-12-07T04:37:26;4.20;99.90
3332;DHT22;1678;50.94845400;5.30809100;2022-12-07T04:39:55;4.20;99.90
3332;DHT22;1678;50.94845400;5.30809100;2022-12-07T04:42:23;4.20;99.90
3332;DHT22;1678;50.94845400;5.30809100;2022-12-07T04:44:51;4.30;99.90
3332;DHT22;1678;50.94845400;5.30809100;2022-12-07T04:47:19;4.40;99.90
3332;DHT22;1678;50.94845400;5.30809100;2022-12-07T04:49:47;4.50;99.90
3332;DHT22;1678;50.94845400;5.30809100;2022-12-07T04:52:15;4.50;99.90
3332;DHT22;1678;50.94845400;5.30809100;2022-12-07T04:54:44;4.50;99.90
3332;DHT22;1678;50.94845400;5.30809100;2022-12-07T04:57:12;4.40;99.90
3332;DHT22;1678;50.94845400;5.30809100;2022-12-07T04:59:40;4.40;99.90
3332;DHT22;1678;50.94845400;5.30809100;2022-12-07T05:02:11;4.30;99.90
3332;DHT22;1678;50.94845400;5.30809100;2022-12-07T05:04:40;4.20;99.90
3332;DHT22;1678;50.94845400;5.30809100;2022-12-07T05:07:08;4.10;99.90
3332;DHT22;1678;50.94845400;5.30809100;2022-12-07T05:09:36;4.00;99.90
3332;DHT22;1678;50.94845400;5.30809100;2022-12-07T05:12:05;3.90;99.90
3332;DHT22;1678;50.94845400;5.30809100;2022-12-07T05:14:33;3.80;99.90
3332;DHT22;1678;50.94845400;5.30809100;2022-12-07T05:17:01;3.80;99.90
3332;DHT22;1678;50.94845400;5.30809100;2022-12-07T05:19:30;3.80;99.90
3332;DHT22;1678;50.94845400;5.30809100;2022-12-07T05:21:58;3.80;99.90
3332;DHT22;1678;50.94845400;5.30809100;2022-12-07T05:24:27;3.70;99.90
3332;DHT22;1678;50.94845400;5.30809100;2022-12-07T05:26:55;3.70;99.90
3332;DHT22;1678;50.94845400;5.30809100;2022-12-07T05:29:24;3.70;99.90
3332;DHT22;1678;50.94845400;5.30809100;2022-12-07T05:31:52;3.70;99.90
3332;DHT22;1678;50.94845400;5.30809100;2022-12-07T05:34:20;3.80;99.90
3332;DHT22;1678;50.94845400;5.30809100;2022-12-07T05:36:48;3.80;99.90
3332;DHT22;1678;50.94845400;5.30809100;2022-12-07T05:39:17;3.90;99.90
3332;DHT22;1678;50.94845400;5.30809100;2022-12-07T05:41:45;3.90;99.90
3332;DHT22;1678;50.94845400;5.30809100;2022-12-07T05:44:31;4.00;99.90
3332;DHT22;1678;50.94845400;5.30809100;2022-12-07T05:46:59;3.90;99.90
3332;DHT22;1678;50.94845400;5.30809100;2022-12-07T05:49:28;3.90;99.90
3332;DHT22;1678;50.94845400;5.30809100;2022-12-07T05:51:56;4.00;99.90
3332;DHT22;1678;50.94845400;5.30809100;2022-12-07T05:54:24;3.90;99.90
3332;DHT22;1678;50.94845400;5.30809100;2022-12-07T05:56:52;3.90;99.90
3332;DHT22;1678;50.94845400;5.30809100;2022-12-07T05:59:20;4.00;99.90
3332;DHT22;1678;50.94845400;5.30809100;2022-12-07T06:01:52;3.90;99.90
3332;DHT22;1678;50.94845400;5.30809100;2022-12-07T06:04:21;4.00;99.90
3332;DHT22;1678;50.94845400;5.30809100;2022-12-07T06:06:50;3.90;99.90
3332;DHT22;1678;50.94845400;5.30809100;2022-12-07T06:09:19;4.00;99.90
3332;DHT22;1678;50.94845400;5.30809100;2022-12-07T06:11:47;4.00;99.90
3332;DHT22;1678;50.94845400;5.30809100;2022-12-07T06:14:33;4.00;99.90
3332;DHT22;1678;50.94845400;5.30809100;2022-12-07T06:17:03;4.10;99.90
3332;DHT22;1678;50.94845400;5.30809100;2022-12-07T06:19:31;4.10;99.90
3332;DHT22;1678;50.94845400;5.30809100;2022-12-07T06:21:59;4.10;99.90
3332;DHT22;1678;50.94845400;5.30809100;2022-12-07T06:24:28;4.20;99.90
3332;DHT22;1678;50.94845400;5.30809100;2022-12-07T06:26:56;4.20;99.90
3332;DHT22;1678;50.94845400;5.30809100;2022-12-07T06:29:24;4.30;99.90
3332;DHT22;1678;50.94845400;5.30809100;2022-12-07T06:31:52;4.30;99.90
3332;DHT22;1678;50.94845400;5.30809100;2022-12-07T06:34:23;4.30;99.90
3332;DHT22;1678;50.94845400;5.30809100;2022-12-07T06:36:52;4.30;99.90
3332;DHT22;1678;50.94845400;5.30809100;2022-12-07T06:39:23;4.30;99.90
3332;DHT22;1678;50.94845400;5.30809100;2022-12-07T06:41:52;4.20;99.90
3332;DHT22;1678;50.94845400;5.30809100;2022-12-07T06:44:21;4.20;99.90
3332;DHT22;1678;50.94845400;5.30809100;2022-12-07T06:46:50;4.30;99.90
3332;DHT22;1678;50.94845400;5.30809100;2022-12-07T06:49:40;4.30;99.90
3332;DHT22;1678;50.94845400;5.30809100;2022-12-07T06:52:08;4.30;99.90
3332;DHT22;1678;50.94845400;5.30809100;2022-12-07T06:54:36;4.30;99.90
3332;DHT22;1678;50.94845400;5.30809100;2022-12-07T06:57:04;4.30;99.90
3332;DHT22;1678;50.94845400;5.30809100;2022-12-07T06:59:32;4.30;99.90
3332;DHT22;1678;50.94845400;5.30809100;2022-12-07T07:02:00;4.40;99.90
3332;DHT22;1678;50.94845400;5.30809100;2022-12-07T07:04:28;4.20;99.90
3332;DHT22;1678;50.94845400;5.30809100;2022-12-07T07:06:58;4.10;99.90
3332;DHT22;1678;50.94845400;5.30809100;2022-12-07T07:09:26;4.00;99.90
3332;DHT22;1678;50.94845400;5.30809100;2022-12-07T07:11:54;3.80;99.90
3332;DHT22;1678;50.94845400;5.30809100;2022-12-07T07:14:22;3.80;99.90
3332;DHT22;1678;50.94845400;5.30809100;2022-12-07T07:16:50;3.70;99.90
3332;DHT22;1678;50.94845400;5.30809100;2022-12-07T07:19:19;3.50;99.90
3332;DHT22;1678;50.94845400;5.30809100;2022-12-07T07:21:47;3.50;99.90
3332;DHT22;1678;50.94845400;5.30809100;2022-12-07T07:24:16;3.40;99.90
3332;DHT22;1678;50.94845400;5.30809100;2022-12-07T07:26:44;3.30;99.90
3332;DHT22;1678;50.94845400;5.30809100;2022-12-07T07:29:12;3.20;99.90
3332;DHT22;1678;50.94845400;5.30809100;2022-12-07T07:31:40;3.10;99.90
3332;DHT22;1678;50.94845400;5.30809100;2022-12-07T07:34:08;3.10;99.90
3332;DHT22;1678;50.94845400;5.30809100;2022-12-07T07:36:36;3.00;99.90
3332;DHT22;1678;50.94845400;5.30809100;2022-12-07T07:39:05;3.00;99.90
3332;DHT22;1678;50.94845400;5.30809100;2022-12-07T07:41:34;3.10;99.90
3332;DHT22;1678;50.94845400;5.30809100;2022-12-07T07:44:03;3.10;99.90
3332;DHT22;1678;50.94845400;5.30809100;2022-12-07T07:46:31;3.10;99.90
3332;DHT22;1678;50.94845400;5.30809100;2022-12-07T07:49:00;3.10;99.90
3332;DHT22;1678;50.94845400;5.30809100;2022-12-07T07:51:28;3.10;99.90
3332;DHT22;1678;50.94845400;5.30809100;2022-12-07T07:53:56;3.10;99.90
3332;DHT22;1678;50.94845400;5.30809100;2022-12-07T07:56:24;3.10;99.90
3332;DHT22;1678;50.94845400;5.30809100;2022-12-07T07:58:53;3.10;99.90
3332;DHT22;1678;50.94845400;5.30809100;2022-12-07T08:01:22;3.10;99.90
3332;DHT22;1678;50.94845400;5.30809100;2022-12-07T08:03:50;3.10;99.90
3332;DHT22;1678;50.94845400;5.30809100;2022-12-07T08:06:18;3.10;99.90
3332;DHT22;1678;50.94845400;5.30809100;2022-12-07T08:08:46;3.10;99.90
3332;DHT22;1678;50.94845400;5.30809100;2022-12-07T08:11:14;3.10;99.90
3332;DHT22;1678;50.94845400;5.30809100;2022-12-07T08:13:45;3.20;99.90
3332;DHT22;1678;50.94845400;5.30809100;2022-12-07T08:16:15;3.40;99.90
3332;DHT22;1678;50.94845400;5.30809100;2022-12-07T08:18:43;3.50;99.90
3332;DHT22;1678;50.94845400;5.30809100;2022-12-07T08:21:13;3.60;99.90
3332;DHT22;1678;50.94845400;5.30809100;2022-12-07T08:23:42;3.50;99.90
3332;DHT22;1678;50.94845400;5.30809100;2022-12-07T08:26:12;3.70;99.90
3332;DHT22;1678;50.94845400;5.30809100;2022-12-07T08:28:41;3.70;99.90
3332;DHT22;1678;50.94845400;5.30809100;2022-12-07T08:31:11;3.70;99.90
3332;DHT22;1678;50.94845400;5.30809100;2022-12-07T08:33:41;3.80;99.90
3332;DHT22;1678;50.94845400;5.30809100;2022-12-07T08:36:11;3.90;99.90
3332;DHT22;1678;50.94845400;5.30809100;2022-12-07T08:38:40;4.10;99.90
3332;DHT22;1678;50.94845400;5.30809100;2022-12-07T08:41:29;4.20;99.90
3332;DHT22;1678;50.94845400;5.30809100;2022-12-07T08:43:57;4.30;99.90
3332;DHT22;1678;50.94845400;5.30809100;2022-12-07T08:46:28;4.30;99.90
3332;DHT22;1678;50.94845400;5.30809100;2022-12-07T08:49:05;4.40;99.90
3332;DHT22;1678;50.94845400;5.30809100;2022-12-07T08:51:35;4.60;99.90
3332;DHT22;1678;50.94845400;5.30809100;2022-12-07T08:54:06;4.70;99.90
3332;DHT22;1678;50.94845400;5.30809100;2022-12-07T08:56:35;4.80;99.90
3332;DHT22;1678;50.94845400;5.30809100;2022-12-07T08:59:04;4.70;99.90
3332;DHT22;1678;50.94845400;5.30809100;2022-12-07T09:01:34;4.70;99.90
3332;DHT22;1678;50.94845400;5.30809100;2022-12-07T09:04:04;4.80;99.90
3332;DHT22;1678;50.94845400;5.30809100;2022-12-07T09:06:32;4.70;99.90
3332;DHT22;1678;50.94845400;5.30809100;2022-12-07T09:09:01;4.80;99.90
3332;DHT22;1678;50.94845400;5.30809100;2022-12-07T09:11:30;5.00;99.90
3332;DHT22;1678;50.94845400;5.30809100;2022-12-07T09:13:58;5.00;99.90
3332;DHT22;1678;50.94845400;5.30809100;2022-12-07T09:16:26;5.00;99.90
3332;DHT22;1678;50.94845400;5.30809100;2022-12-07T09:18:55;5.00;99.90
3332;DHT22;1678;50.94845400;5.30809100;2022-12-07T09:21:24;5.10;99.90
3332;DHT22;1678;50.94845400;5.30809100;2022-12-07T09:23:52;5.20;99.90
3332;DHT22;1678;50.94845400;5.30809100;2022-12-07T09:26:20;5.20;99.90
3332;DHT22;1678;50.94845400;5.30809100;2022-12-07T09:28:48;5.20;99.90
3332;DHT22;1678;50.94845400;5.30809100;2022-12-07T09:31:17;5.30;99.90
3332;DHT22;1678;50.94845400;5.30809100;2022-12-07T09:33:53;5.30;99.90
3332;DHT22;1678;50.94845400;5.30809100;2022-12-07T09:36:23;5.20;99.90
3332;DHT22;1678;50.94845400;5.30809100;2022-12-07T09:38:52;5.20;99.90
3332;DHT22;1678;50.94845400;5.30809100;2022-12-07T09:41:21;5.20;99.90
3332;DHT22;1678;50.94845400;5.30809100;2022-12-07T09:43:50;5.20;99.90
3332;DHT22;1678;50.94845400;5.30809100;2022-12-07T09:46:20;5.30;99.90
3332;DHT22;1678;50.94845400;5.30809100;2022-12-07T09:48:50;5.40;99.90
3332;DHT22;1678;50.94845400;5.30809100;2022-12-07T09:51:20;5.40;99.90
3332;DHT22;1678;50.94845400;5.30809100;2022-12-07T09:53:54;5.40;99.90
3332;DHT22;1678;50.94845400;5.30809100;2022-12-07T09:56:23;5.50;99.90
3332;DHT22;1678;50.94845400;5.30809100;2022-12-07T09:58:57;5.40;99.90
3332;DHT22;1678;50.94845400;5.30809100;2022-12-07T10:01:28;5.40;99.90
3332;DHT22;1678;50.94845400;5.30809100;2022-12-07T10:04:02;5.40;99.90
3332;DHT22;1678;50.94845400;5.30809100;2022-12-07T10:06:33;5.60;99.90
3332;DHT22;1678;50.94845400;5.30809100;2022-12-07T10:09:09;5.70;99.90
3332;DHT22;1678;50.94845400;5.30809100;2022-12-07T10:11:59;6.00;99.90
3332;DHT22;1678;50.94845400;5.30809100;2022-12-07T10:14:28;6.00;99.90
3332;DHT22;1678;50.94845400;5.30809100;2022-12-07T10:17:33;6.20;99.90
3332;DHT22;1678;50.94845400;5.30809100;2022-12-07T10:20:22;6.10;99.90
3332;DHT22;1678;50.94845400;5.30809100;2022-12-07T10:23:01;6.20;99.90
3332;DHT22;1678;50.94845400;5.30809100;2022-12-07T10:25:33;6.30;99.90
3332;DHT22;1678;50.94845400;5.30809100;2022-12-07T10:28:17;6.40;99.90
3332;DHT22;1678;50.94845400;5.30809100;2022-12-07T10:30:54;6.30;99.90
3332;DHT22;1678;50.94845400;5.30809100;2022-12-07T10:33:32;6.20;99.90
3332;DHT22;1678;50.94845400;5.30809100;2022-12-07T10:36:14;6.20;99.90
3332;DHT22;1678;50.94845400;5.30809100;2022-12-07T10:38:45;6.30;99.90
3332;DHT22;1678;50.94845400;5.30809100;2022-12-07T10:41:17;6.30;99.90
3332;DHT22;1678;50.94845400;5.30809100;2022-12-07T10:43:49;6.30;99.90
3332;DHT22;1678;50.94845400;5.30809100;2022-12-07T10:50:15;6.20;99.90
3332;DHT22;1678;50.94845400;5.30809100;2022-12-07T10:52:56;6.10;99.90
3332;DHT22;1678;50.94845400;5.30809100;2022-12-07T10:55:33;6.30;99.90
3332;DHT22;1678;50.94845400;5.30809100;2022-12-07T10:58:24;6.20;99.90
3332;DHT22;1678;50.94845400;5.30809100;2022-12-07T11:01:02;6.20;99.90
3332;DHT22;1678;50.94845400;5.30809100;2022-12-07T11:03:43;6.20;99.90
3332;DHT22;1678;50.94845400;5.30809100;2022-12-07T11:06:24;6.20;99.90
3332;DHT22;1678;50.94845400;5.30809100;2022-12-07T11:09:06;6.30;99.90
3332;DHT22;1678;50.94845400;5.30809100;2022-12-07T11:11:46;6.40;99.90
3332;DHT22;1678;50.94845400;5.30809100;2022-12-07T11:14:21;6.50;99.90
3332;DHT22;1678;50.94845400;5.30809100;2022-12-07T11:16:56;6.40;99.90
3332;DHT22;1678;50.94845400;5.30809100;2022-12-07T11:19:42;6.30;99.90
3332;DHT22;1678;50.94845400;5.30809100;2022-12-07T11:22:23;6.30;99.90
3332;DHT22;1678;50.94845400;5.30809100;2022-12-07T11:24:57;6.30;99.90
3332;DHT22;1678;50.94845400;5.30809100;2022-12-07T11:27:35;6.40;99.90
3332;DHT22;1678;50.94845400;5.30809100;2022-12-07T11:30:19;6.30;99.90
3332;DHT22;1678;50.94845400;5.30809100;2022-12-07T11:33:04;6.40;99.90
3332;DHT22;1678;50.94845400;5.30809100;2022-12-07T11:35:49;6.50;99.90
3332;DHT22;1678;50.94845400;5.30809100;2022-12-07T11:38:33;6.50;99.90
3332;DHT22;1678;50.94845400;5.30809100;2022-12-07T11:41:06;6.50;99.90
3332;DHT22;1678;50.94845400;5.30809100;2022-12-07T11:43:59;6.70;99.90
3332;DHT22;1678;50.94845400;5.30809100;2022-12-07T11:46:43;6.90;99.90
3332;DHT22;1678;50.94845400;5.30809100;2022-12-07T11:49:17;7.00;99.90
3332;DHT22;1678;50.94845400;5.30809100;2022-12-07T11:51:50;7.00;99.90
3332;DHT22;1678;50.94845400;5.30809100;2022-12-07T11:54:23;6.90;99.90
3332;DHT22;1678;50.94845400;5.30809100;2022-12-07T11:56:53;6.80;99.90
3332;DHT22;1678;50.94845400;5.30809100;2022-12-07T11:59:28;6.70;99.90
3332;DHT22;1678;50.94845400;5.30809100;2022-12-07T12:02:11;6.60;99.90
3332;DHT22;1678;50.94845400;5.30809100;2022-12-07T12:04:47;6.60;99.90
3332;DHT22;1678;50.94845400;5.30809100;2022-12-07T12:07:21;6.60;99.90
3332;DHT22;1678;50.94845400;5.30809100;2022-12-07T12:10:18;6.60;99.90
3332;DHT22;1678;50.94845400;5.30809100;2022-12-07T12:13:09;6.60;99.90
3332;DHT22;1678;50.94845400;5.30809100;2022-12-07T12:16:10;6.80;99.90
3332;DHT22;1678;50.94845400;5.30809100;2022-12-07T12:19:00;7.00;99.90
3332;DHT22;1678;50.94845400;5.30809100;2022-12-07T12:21:31;7.00;99.90
3332;DHT22;1678;50.94845400;5.30809100;2022-12-07T12:24:02;7.00;99.90
3332;DHT22;1678;50.94845400;5.30809100;2022-12-07T12:26:32;7.00;99.90
3332;DHT22;1678;50.94845400;5.30809100;2022-12-07T12:29:05;7.00;99.90
3332;DHT22;1678;50.94845400;5.30809100;2022-12-07T12:31:37;6.90;99.90
3332;DHT22;1678;50.94845400;5.30809100;2022-12-07T12:34:33;6.80;99.90
3332;DHT22;1678;50.94845400;5.30809100;2022-12-07T12:37:01;6.90;99.90
3332;DHT22;1678;50.94845400;5.30809100;2022-12-07T12:39:29;6.90;99.90
3332;DHT22;1678;50.94845400;5.30809100;2022-12-07T12:41:59;7.00;99.90
3332;DHT22;1678;50.94845400;5.30809100;2022-12-07T12:47:53;6.90;99.90
3332;DHT22;1678;50.94845400;5.30809100;2022-12-07T12:50:28;7.00;99.90
3332;DHT22;1678;50.94845400;5.30809100;2022-12-07T12:53:20;7.20;99.90
3332;DHT22;1678;50.94845400;5.30809100;2022-12-07T12:56:25;6.90;99.90
3332;DHT22;1678;50.94845400;5.30809100;2022-12-07T12:59:25;6.90;99.90
3332;DHT22;1678;50.94845400;5.30809100;2022-12-07T13:01:56;6.90;99.90
3332;DHT22;1678;50.94845400;5.30809100;2022-12-07T13:04:51;6.80;99.90
3332;DHT22;1678;50.94845400;5.30809100;2022-12-07T13:07:55;6.80;99.90
3332;DHT22;1678;50.94845400;5.30809100;2022-12-07T13:10:42;6.70;99.90
3332;DHT22;1678;50.94845400;5.30809100;2022-12-07T13:13:34;6.70;99.90
3332;DHT22;1678;50.94845400;5.30809100;2022-12-07T13:22:43;6.80;99.90
3332;DHT22;1678;50.94845400;5.30809100;2022-12-07T13:25:21;6.80;99.90
3332;DHT22;1678;50.94845400;5.30809100;2022-12-07T13:27:56;6.80;99.90
3332;DHT22;1678;50.94845400;5.30809100;2022-12-07T13:30:25;6.80;99.90
3332;DHT22;1678;50.94845400;5.30809100;2022-12-07T13:32:55;6.80;99.90
3332;DHT22;1678;50.94845400;5.30809100;2022-12-07T13:35:32;6.80;99.90
3332;DHT22;1678;50.94845400;5.30809100;2022-12-07T13:38:13;6.70;99.90
3332;DHT22;1678;50.94845400;5.30809100;2022-12-07T13:41:03;6.60;99.90
3332;DHT22;1678;50.94845400;5.30809100;2022-12-07T13:43:41;6.70;99.90
3332;DHT22;1678;50.94845400;5.30809100;2022-12-07T13:46:11;6.80;99.90
3332;DHT22;1678;50.94845400;5.30809100;2022-12-07T13:48:46;6.70;99.90
3332;DHT22;1678;50.94845400;5.30809100;2022-12-07T13:51:18;6.80;99.90
3332;DHT22;1678;50.94845400;5.30809100;2022-12-07T13:53:48;6.70;99.90
3332;DHT22;1678;50.94845400;5.30809100;2022-12-07T13:56:18;6.70;99.90
3332;DHT22;1678;50.94845400;5.30809100;2022-12-07T13:58:46;6.60;99.90
3332;DHT22;1678;50.94845400;5.30809100;2022-12-07T14:01:14;6.40;99.90
3332;DHT22;1678;50.94845400;5.30809100;2022-12-07T14:03:43;6.40;99.90
3332;DHT22;1678;50.94845400;5.30809100;2022-12-07T14:06:23;6.30;99.90
3332;DHT22;1678;50.94845400;5.30809100;2022-12-07T14:09:09;6.30;99.90
3332;DHT22;1678;50.94845400;5.30809100;2022-12-07T14:11:45;6.50;99.90
3332;DHT22;1678;50.94845400;5.30809100;2022-12-07T14:14:16;6.60;99.90
3332;DHT22;1678;50.94845400;5.30809100;2022-12-07T14:16:56;6.60;99.90
3332;DHT22;1678;50.94845400;5.30809100;2022-12-07T14:19:54;6.50;99.90
3332;DHT22;1678;50.94845400;5.30809100;2022-12-07T14:22:27;6.50;99.90
3332;DHT22;1678;50.94845400;5.30809100;2022-12-07T14:25:17;6.60;99.90
3332;DHT22;1678;50.94845400;5.30809100;2022-12-07T14:27:55;6.60;99.90
3332;DHT22;1678;50.94845400;5.30809100;2022-12-07T14:30:26;6.60;99.90
3332;DHT22;1678;50.94845400;5.30809100;2022-12-07T14:32:57;6.50;99.90
3332;DHT22;1678;50.94845400;5.30809100;2022-12-07T14:35:27;6.60;99.90
3332;DHT22;1678;50.94845400;5.30809100;2022-12-07T14:37:55;6.60;99.90
3332;DHT22;1678;50.94845400;5.30809100;2022-12-07T14:40:25;6.50;99.90
3332;DHT22;1678;50.94845400;5.30809100;2022-12-07T14:42:57;6.50;99.90